Time;durP1;ratioP1;P1;durP2;ratioP2;P2;SDS_P1;SDS_P2;PMS_P1;PMS_P2;Temp;Humidity;BMP_temperature;BMP_pressure;BME280_temperature;BME280_humidity;BME280_pressure;Samples;Min_cycle;Max_cycle;Signal;HPM_P1;HPM_P2
2022/04/13 00:01:58;;;;;;;10.93;3.35;;;;;;;;;;5111420;27;20758;-14
2022/04/13 00:04:25;;;;;;;5.28;3.17;;;;;;;;;;5113564;27;21051;-15
2022/04/13 00:06:52;;;;;;;5.22;2.90;;;;;;;;;;5114401;27;20231;-15
2022/04/13 00:09:20;;;;;;;6.28;2.88;;;;;;;;;;5117910;27;20258;-14
2022/04/13 00:11:47;;;;;;;5.38;2.88;;;;;;;;;;5111023;27;20251;-15
2022/04/13 00:14:14;;;;;;;7.28;3.08;;;;;;;;;;5115455;27;20712;-14
2022/04/13 00:16:43;;;;;;;6.90;3.28;;;;;;;;;;5106953;27;20416;-14
2022/04/13 00:19:10;;;;;;;5.22;3.08;;;;;;;;;;5114103;27;20232;-14
2022/04/13 00:21:38;;;;;;;8.38;2.47;;;;;;;;;;5114844;27;20247;-14
2022/04/13 00:24:05;;;;;;;5.82;3.08;;;;;;;;;;5112179;27;20251;-14
2022/04/13 00:26:33;;;;;;;7.22;2.95;;;;;;;;;;5112575;27;20267;-14
2022/04/13 00:29:01;;;;;;;5.18;2.83;;;;;;;;;;5112760;27;20242;-14
2022/04/13 00:31:29;;;;;;;4.70;2.83;;;;;;;;;;5105869;27;20238;-14
2022/04/13 00:33:57;;;;;;;4.30;2.50;;;;;;;;;;5107205;27;20236;-14
2022/04/13 00:36:25;;;;;;;9.70;2.83;;;;;;;;;;5118126;27;20231;-15
2022/04/13 00:38:52;;;;;;;5.15;2.60;;;;;;;;;;5109221;27;20313;-15
2022/04/13 00:41:21;;;;;;;5.07;2.88;;;;;;;;;;5119991;27;20274;-14
2022/04/13 00:44:01;;;;;;;5.72;3.10;;;;;;;;;;5114575;27;20227;-15
2022/04/13 00:46:28;;;;;;;5.28;2.92;;;;;;;;;;5112604;27;20235;-15
2022/04/13 00:48:56;;;;;;;10.68;3.00;;;;;;;;;;5123362;27;20241;-14
2022/04/13 00:51:24;;;;;;;9.45;3.30;;;;;;;;;;5121113;27;20236;-14
2022/04/13 00:53:51;;;;;;;8.93;3.25;;;;;;;;;;5123710;27;20230;-14
2022/04/13 00:56:21;;;;;;;10.63;3.17;;;;;;;;;;5117544;27;20241;-14
2022/04/13 00:58:48;;;;;;;10.18;3.20;;;;;;;;;;5121609;27;20227;-15
2022/04/13 01:01:16;;;;;;;12.65;2.88;;;;;;;;;;5119799;27;20232;-15
2022/04/13 01:03:43;;;;;;;18.88;3.72;;;;;;;;;;5121485;27;20269;-15
2022/04/13 01:06:11;;;;;;;12.30;2.88;;;;;;;;;;5122260;27;20238;-15
2022/04/13 01:08:39;;;;;;;7.07;2.83;;;;;;;;;;5120641;27;20221;-15
2022/04/13 01:11:07;;;;;;;11.85;3.00;;;;;;;;;;5121995;27;20722;-14
2022/04/13 01:13:38;;;;;;;9.32;2.90;;;;;;;;;;5120092;27;20230;-14
2022/04/13 01:16:06;;;;;;;11.30;3.63;;;;;;;;;;5123629;27;20231;-15
2022/04/13 01:18:34;;;;;;;8.60;2.95;;;;;;;;;;5119405;27;20234;-15
2022/04/13 01:21:01;;;;;;;10.23;3.20;;;;;;;;;;5116194;27;20236;-14
2022/04/13 01:23:30;;;;;;;11.70;3.40;;;;;;;;;;5119680;27;20248;-15
2022/04/13 01:25:57;;;;;;;6.70;2.90;;;;;;;;;;5121436;27;20261;-14
2022/04/13 01:28:24;;;;;;;10.02;2.70;;;;;;;;;;5118755;27;20224;-15
2022/04/13 01:30:56;;;;;;;9.35;2.70;;;;;;;;;;5121819;27;20224;-14
2022/04/13 01:33:24;;;;;;;14.07;3.20;;;;;;;;;;5118461;27;20706;-15
2022/04/13 01:35:51;;;;;;;6.20;2.65;;;;;;;;;;5121180;27;20673;-15
2022/04/13 01:38:18;;;;;;;8.05;2.85;;;;;;;;;;5116997;27;20228;-15
2022/04/13 01:40:48;;;;;;;11.02;2.63;;;;;;;;;;5118747;27;20673;-15
2022/04/13 01:43:16;;;;;;;7.28;2.33;;;;;;;;;;5124503;27;20695;-14
2022/04/13 01:45:43;;;;;;;6.03;2.63;;;;;;;;;;5122494;27;20327;-15
2022/04/13 01:48:11;;;;;;;6.90;3.05;;;;;;;;;;5125256;27;20231;-14
2022/04/13 01:50:38;;;;;;;6.90;3.22;;;;;;;;;;5124000;27;20224;-15
2022/04/13 01:53:05;;;;;;;9.73;3.03;;;;;;;;;;5126601;27;20223;-15
2022/04/13 01:55:33;;;;;;;9.10;2.75;;;;;;;;;;5123078;27;20232;-15
2022/04/13 01:58:01;;;;;;;8.05;2.83;;;;;;;;;;5118696;27;20993;-14
2022/04/13 02:00:29;;;;;;;7.93;2.95;;;;;;;;;;5121784;27;21087;-15
2022/04/13 02:02:56;;;;;;;7.43;2.92;;;;;;;;;;5122728;27;20239;-15
2022/04/13 02:05:25;;;;;;;4.63;2.75;;;;;;;;;;5123042;27;20232;-14
2022/04/13 02:07:52;;;;;;;10.30;2.95;;;;;;;;;;5122159;27;20220;-15
2022/04/13 02:10:20;;;;;;;9.52;3.17;;;;;;;;;;5119731;27;20274;-14
2022/04/13 02:12:48;;;;;;;4.75;2.13;;;;;;;;;;5124630;27;20216;-14
2022/04/13 02:15:17;;;;;;;3.78;2.50;;;;;;;;;;5128349;27;21029;-14
2022/04/13 02:17:45;;;;;;;3.83;2.45;;;;;;;;;;5124496;27;20273;-14
2022/04/13 02:20:12;;;;;;;6.68;2.47;;;;;;;;;;5122488;27;21005;-14
2022/04/13 02:22:40;;;;;;;4.53;2.58;;;;;;;;;;5119104;22;20239;-19
2022/04/13 02:25:13;;;;;;;9.50;2.80;;;;;;;;;;5105288;28;20286;-19
2022/04/13 02:27:42;;;;;;;5.70;2.90;;;;;;;;;;5099545;28;20678;-20
2022/04/13 02:30:10;;;;;;;4.70;2.70;;;;;;;;;;5101298;28;20232;-19
2022/04/13 02:32:39;;;;;;;4.00;2.22;;;;;;;;;;5100405;28;20272;-19
2022/04/13 02:35:06;;;;;;;5.55;2.75;;;;;;;;;;5102430;28;20213;-19
2022/04/13 02:37:34;;;;;;;7.57;2.70;;;;;;;;;;5104441;28;20691;-19
2022/04/13 02:40:01;;;;;;;5.30;2.33;;;;;;;;;;5095956;28;20228;-19
2022/04/13 02:42:31;;;;;;;6.28;2.70;;;;;;;;;;5100000;28;21051;-19
2022/04/13 02:44:59;;;;;;;4.53;2.58;;;;;;;;;;5104009;28;20227;-19
2022/04/13 02:47:26;;;;;;;5.00;2.40;;;;;;;;;;5104828;28;20220;-19
2022/04/13 02:49:55;;;;;;;5.20;2.92;;;;;;;;;;5102328;28;20696;-19
2022/04/13 02:52:23;;;;;;;4.95;2.63;;;;;;;;;;5103717;28;20224;-19
2022/04/13 02:54:50;;;;;;;4.65;2.13;;;;;;;;;;5103944;28;20758;-19
2022/04/13 02:57:18;;;;;;;4.38;2.45;;;;;;;;;;5102885;28;20515;-19
2022/04/13 02:59:46;;;;;;;5.07;2.22;;;;;;;;;;5103075;28;20225;-19
2022/04/13 03:02:14;;;;;;;4.95;1.98;;;;;;;;;;5101088;28;20235;-19
2022/04/13 03:04:43;;;;;;;5.05;2.60;;;;;;;;;;5101347;28;20229;-19
2022/04/13 03:07:12;;;;;;;7.03;2.72;;;;;;;;;;5103986;28;20232;-19
2022/04/13 03:09:39;;;;;;;3.78;2.45;;;;;;;;;;5101621;28;20242;-19
2022/04/13 03:12:07;;;;;;;4.68;2.53;;;;;;;;;;5101781;28;20236;-19
2022/04/13 03:14:34;;;;;;;5.10;2.35;;;;;;;;;;5104876;28;20239;-19
2022/04/13 03:17:01;;;;;;;3.17;2.40;;;;;;;;;;5100707;28;20235;-19
2022/04/13 03:19:29;;;;;;;4.53;2.78;;;;;;;;;;5096540;28;20228;-19
2022/04/13 03:21:56;;;;;;;4.78;2.60;;;;;;;;;;5103733;28;20593;-19
2022/04/13 03:24:25;;;;;;;4.80;2.30;;;;;;;;;;5113201;28;20232;-19
2022/04/13 03:26:53;;;;;;;3.42;2.25;;;;;;;;;;5108462;28;21091;-19
2022/04/13 03:29:20;;;;;;;4.60;2.40;;;;;;;;;;5112878;28;20262;-19
2022/04/13 03:31:48;;;;;;;5.05;2.60;;;;;;;;;;5105036;28;20228;-19
2022/04/13 03:34:20;;;;;;;3.75;2.17;;;;;;;;;;5112689;28;20228;-19
2022/04/13 03:36:47;;;;;;;4.88;2.17;;;;;;;;;;5112693;28;20243;-19
2022/04/13 03:39:15;;;;;;;6.45;2.40;;;;;;;;;;5111679;28;20239;-19
2022/04/13 03:41:43;;;;;;;4.05;1.92;;;;;;;;;;5112785;28;20246;-19
2022/04/13 03:44:11;;;;;;;5.50;2.15;;;;;;;;;;5112543;28;20251;-19
2022/04/13 03:46:39;;;;;;;2.85;2.17;;;;;;;;;;5108690;28;21006;-20
2022/04/13 03:49:07;;;;;;;3.72;2.10;;;;;;;;;;5108347;28;20763;-19
2022/04/13 03:51:34;;;;;;;4.65;2.55;;;;;;;;;;5109158;28;20235;-19
2022/04/13 03:54:01;;;;;;;3.20;2.10;;;;;;;;;;5112901;28;20270;-19
2022/04/13 03:56:29;;;;;;;2.90;2.08;;;;;;;;;;5112770;28;20733;-19
2022/04/13 03:58:58;;;;;;;3.58;2.25;;;;;;;;;;5112653;28;20223;-19
2022/04/13 04:01:26;;;;;;;4.68;2.30;;;;;;;;;;5104238;28;20227;-19
2022/04/13 04:03:54;;;;;;;4.10;2.42;;;;;;;;;;5111377;27;20319;-19
2022/04/13 04:06:21;;;;;;;6.20;2.80;;;;;;;;;;5112331;28;20235;-19
2022/04/13 04:08:49;;;;;;;3.28;2.25;;;;;;;;;;5112478;28;20232;-19
2022/04/13 04:11:16;;;;;;;3.30;2.08;;;;;;;;;;5108012;28;20235;-20
2022/04/13 04:13:43;;;;;;;3.10;2.45;;;;;;;;;;5112274;28;20232;-19
2022/04/13 04:16:12;;;;;;;4.00;2.10;;;;;;;;;;5112434;28;20980;-20
2022/04/13 04:18:39;;;;;;;2.50;1.92;;;;;;;;;;5112347;28;20228;-20
2022/04/13 04:21:07;;;;;;;4.30;2.30;;;;;;;;;;5111073;28;20228;-19
2022/04/13 04:23:34;;;;;;;9.35;2.42;;;;;;;;;;5098735;28;20232;-19
2022/04/13 04:26:02;;;;;;;5.20;2.42;;;;;;;;;;5112026;28;20228;-19
2022/04/13 04:28:29;;;;;;;3.38;2.13;;;;;;;;;;5103739;28;20235;-19
2022/04/13 04:30:56;;;;;;;4.20;2.17;;;;;;;;;;5108060;28;20228;-19
2022/04/13 04:33:26;;;;;;;3.67;2.00;;;;;;;;;;5108086;28;20286;-19
2022/04/13 04:35:53;;;;;;;5.25;2.25;;;;;;;;;;5112168;28;20236;-19
2022/04/13 04:38:20;;;;;;;4.07;2.05;;;;;;;;;;5111839;28;20228;-19
2022/04/13 04:40:48;;;;;;;4.10;2.30;;;;;;;;;;5111825;28;20224;-19
2022/04/13 04:43:15;;;;;;;3.53;2.15;;;;;;;;;;5110009;28;20246;-19
2022/04/13 04:45:42;;;;;;;3.97;2.55;;;;;;;;;;5109698;28;20236;-19
2022/04/13 04:48:10;;;;;;;3.10;2.15;;;;;;;;;;5111892;28;20232;-19
2022/04/13 04:50:38;;;;;;;5.03;2.75;;;;;;;;;;5111726;28;20235;-19
2022/04/13 04:53:06;;;;;;;4.47;2.38;;;;;;;;;;5109908;28;20224;-19
2022/04/13 04:55:33;;;;;;;4.72;2.35;;;;;;;;;;5107166;28;20687;-19
2022/04/13 04:58:02;;;;;;;3.35;2.10;;;;;;;;;;5104226;28;20219;-19
2022/04/13 05:00:35;;;;;;;4.18;2.55;;;;;;;;;;5099918;28;20699;-19
2022/04/13 05:03:02;;;;;;;4.53;2.20;;;;;;;;;;5091969;28;20247;-19
2022/04/13 05:05:31;;;;;;;3.63;2.15;;;;;;;;;;5097085;28;20791;-20
2022/04/13 05:07:59;;;;;;;4.32;2.33;;;;;;;;;;5111669;28;20242;-19
2022/04/13 05:10:27;;;;;;;2.92;2.00;;;;;;;;;;5111713;28;21055;-19
2022/04/13 05:12:56;;;;;;;6.70;2.60;;;;;;;;;;5103942;28;20220;-19
2022/04/13 05:15:25;;;;;;;6.60;2.47;;;;;;;;;;5113235;27;20331;-19
2022/04/13 05:17:52;;;;;;;4.28;2.10;;;;;;;;;;5105345;28;20985;-19
2022/04/13 05:20:20;;;;;;;4.72;2.30;;;;;;;;;;5115441;28;20230;-19
2022/04/13 05:22:47;;;;;;;5.75;2.38;;;;;;;;;;5114631;28;20879;-19
2022/04/13 05:25:16;;;;;;;3.20;2.00;;;;;;;;;;5115193;28;20224;-19
2022/04/13 05:27:43;;;;;;;3.83;2.42;;;;;;;;;;5110949;28;20947;-19
2022/04/13 05:30:13;;;;;;;3.25;2.20;;;;;;;;;;5114936;28;20991;-19
2022/04/13 05:32:47;;;;;;;5.90;2.30;;;;;;;;;;5112215;28;20224;-19
2022/04/13 05:35:15;;;;;;;2.53;1.83;;;;;;;;;;5114623;28;20235;-19
2022/04/13 05:37:42;;;;;;;4.32;2.42;;;;;;;;;;5114732;28;20238;-19
2022/04/13 05:40:10;;;;;;;5.18;2.17;;;;;;;;;;5110184;28;20229;-19
2022/04/13 05:42:38;;;;;;;5.43;2.60;;;;;;;;;;5114578;28;20255;-19
2022/04/13 05:45:06;;;;;;;3.58;2.42;;;;;;;;;;5113985;28;20235;-19
2022/04/13 05:47:34;;;;;;;3.50;2.13;;;;;;;;;;5114590;28;20970;-19
2022/04/13 05:50:01;;;;;;;3.00;2.00;;;;;;;;;;5110360;28;20659;-19
2022/04/13 05:52:29;;;;;;;3.95;2.25;;;;;;;;;;5114653;28;20228;-19
2022/04/13 05:54:56;;;;;;;3.95;2.10;;;;;;;;;;5114654;28;20707;-19
2022/04/13 05:57:23;;;;;;;4.75;2.40;;;;;;;;;;5114763;28;20231;-19
2022/04/13 05:59:53;;;;;;;4.18;1.90;;;;;;;;;;5114425;28;20694;-19
2022/04/13 06:02:20;;;;;;;6.68;2.30;;;;;;;;;;5107490;28;20242;-19
2022/04/13 06:04:48;;;;;;;3.67;2.20;;;;;;;;;;5114318;28;20231;-19
2022/04/13 06:07:15;;;;;;;2.80;2.05;;;;;;;;;;5105579;28;20692;-19
2022/04/13 06:09:43;;;;;;;4.28;2.17;;;;;;;;;;5103521;28;20233;-19
2022/04/13 06:12:10;;;;;;;3.03;2.17;;;;;;;;;;5094131;28;20243;-19
2022/04/13 06:14:38;;;;;;;3.22;2.38;;;;;;;;;;5098500;28;20259;-19
2022/04/13 06:17:06;;;;;;;2.67;2.05;;;;;;;;;;5099065;28;20348;-19
2022/04/13 06:19:34;;;;;;;4.18;2.22;;;;;;;;;;5093579;28;20229;-19
2022/04/13 06:22:01;;;;;;;3.88;2.50;;;;;;;;;;5092848;28;20244;-19
2022/04/13 06:24:28;;;;;;;6.78;2.42;;;;;;;;;;5092505;28;20244;-19
2022/04/13 06:26:56;;;;;;;4.88;3.00;;;;;;;;;;5097623;28;20229;-19
2022/04/13 06:29:28;;;;;;;4.18;2.40;;;;;;;;;;5094425;28;20279;-19
2022/04/13 06:31:56;;;;;;;6.55;2.95;;;;;;;;;;5103623;28;20232;-19
2022/04/13 06:34:24;;;;;;;6.07;3.50;;;;;;;;;;5107948;28;20250;-19
2022/04/13 06:36:52;;;;;;;4.43;2.60;;;;;;;;;;5113655;28;20228;-19
2022/04/13 06:39:19;;;;;;;6.35;3.25;;;;;;;;;;5112896;28;20231;-19
2022/04/13 06:41:46;;;;;;;6.78;3.60;;;;;;;;;;5113873;28;20232;-20
2022/04/13 06:44:13;;;;;;;7.20;3.70;;;;;;;;;;5100837;28;20233;-19
2022/04/13 06:46:41;;;;;;;5.50;3.03;;;;;;;;;;5103574;28;20228;-19
2022/04/13 06:49:14;;;;;;;4.07;2.90;;;;;;;;;;5112377;28;20232;-19
2022/04/13 06:51:43;;;;;;;5.63;3.10;;;;;;;;;;5113227;28;20231;-19
2022/04/13 06:54:10;;;;;;;6.55;3.78;;;;;;;;;;5113719;28;20228;-19
2022/04/13 06:56:39;;;;;;;8.15;3.70;;;;;;;;;;5108952;28;20236;-19
2022/04/13 06:59:06;;;;;;;7.18;3.72;;;;;;;;;;5113523;28;20728;-19
2022/04/13 07:01:34;;;;;;;8.02;3.17;;;;;;;;;;5100678;28;20538;-19
2022/04/13 07:04:01;;;;;;;5.90;3.28;;;;;;;;;;5105654;28;20327;-19
2022/04/13 07:06:29;;;;;;;12.98;3.17;;;;;;;;;;5100998;28;20233;-19
2022/04/13 07:09:18;;;;;;;7.32;3.67;;;;;;;;;;5101502;28;21063;-19
2022/04/13 07:11:45;;;;;;;8.38;3.65;;;;;;;;;;5113509;28;20726;-19
2022/04/13 07:14:13;;;;;;;10.40;3.70;;;;;;;;;;5113187;28;20231;-19
2022/04/13 07:16:40;;;;;;;8.00;3.85;;;;;;;;;;5108809;28;20239;-19
2022/04/13 07:19:07;;;;;;;8.35;3.67;;;;;;;;;;5108792;28;20256;-19
2022/04/13 07:21:35;;;;;;;9.35;4.15;;;;;;;;;;5112191;28;20248;-19
2022/04/13 07:24:24;;;;;;;10.60;4.30;;;;;;;;;;5113439;28;20235;-19
2022/04/13 07:26:51;;;;;;;7.22;4.07;;;;;;;;;;5113426;28;20212;-19
2022/04/13 07:29:19;;;;;;;12.93;3.13;;;;;;;;;;5108156;28;20235;-19
2022/04/13 07:31:46;;;;;;;10.50;3.85;;;;;;;;;;5105360;28;20615;-19
2022/04/13 07:34:13;;;;;;;7.90;3.22;;;;;;;;;;5112966;28;20302;-19
2022/04/13 07:36:41;;;;;;;7.57;3.65;;;;;;;;;;5112976;28;20232;-19
2022/04/13 07:39:08;;;;;;;22.83;5.32;;;;;;;;;;5112389;27;20236;-19
2022/04/13 07:41:36;;;;;;;13.70;3.88;;;;;;;;;;5109358;28;20239;-20
2022/04/13 07:44:04;;;;;;;13.38;3.60;;;;;;;;;;5098927;28;20237;-19
2022/04/13 07:46:31;;;;;;;9.75;3.80;;;;;;;;;;5099600;28;20224;-19
2022/04/13 07:48:59;;;;;;;9.40;3.78;;;;;;;;;;5098271;28;20232;-19
2022/04/13 07:51:26;;;;;;;14.63;4.15;;;;;;;;;;5097415;28;20227;-19
2022/04/13 07:53:53;;;;;;;11.10;4.85;;;;;;;;;;5100392;28;20224;-19
2022/04/13 07:56:20;;;;;;;11.50;4.22;;;;;;;;;;5101517;28;20236;-19
2022/04/13 07:58:49;;;;;;;15.40;4.47;;;;;;;;;;5091179;28;20228;-19
2022/04/13 08:01:16;;;;;;;10.40;4.38;;;;;;;;;;5078251;28;20239;-19
2022/04/13 08:03:44;;;;;;;12.75;4.10;;;;;;;;;;5086462;28;20320;-19
2022/04/13 08:06:12;;;;;;;9.80;3.65;;;;;;;;;;5095481;28;20243;-19
2022/04/13 08:08:39;;;;;;;13.20;4.43;;;;;;;;;;5078547;28;20543;-19
2022/04/13 08:11:07;;;;;;;9.27;3.85;;;;;;;;;;5071054;28;20229;-19
2022/04/13 08:13:34;;;;;;;14.20;4.35;;;;;;;;;;5088481;28;20228;-19
2022/04/13 08:16:16;;;;;;;8.60;3.95;;;;;;;;;;5091730;28;21457;-20
2022/04/13 08:18:45;;;;;;;12.00;4.30;;;;;;;;;;5103577;28;20428;-19
2022/04/13 08:21:12;;;;;;;11.95;4.40;;;;;;;;;;5095237;28;20236;-19
2022/04/13 08:23:39;;;;;;;14.63;4.40;;;;;;;;;;5057632;28;20253;-19
2022/04/13 08:26:07;;;;;;;15.27;4.72;;;;;;;;;;5054012;28;20435;-19
2022/04/13 08:28:34;;;;;;;9.43;3.42;;;;;;;;;;5054360;28;20229;-19
2022/04/13 08:31:02;;;;;;;9.17;4.40;;;;;;;;;;5042772;28;20115;-19
2022/04/13 08:33:30;;;;;;;9.63;3.50;;;;;;;;;;5051601;28;20233;-19
2022/04/13 08:35:58;;;;;;;7.40;3.47;;;;;;;;;;5046739;28;20238;-20
2022/04/13 08:38:25;;;;;;;11.50;3.88;;;;;;;;;;5056512;28;20240;-20
2022/04/13 08:40:55;;;;;;;9.27;4.05;;;;;;;;;;5062040;28;20410;-19
2022/04/13 08:43:23;;;;;;;12.50;3.67;;;;;;;;;;5063851;28;21028;-19
2022/04/13 08:45:53;;;;;;;28.55;4.07;;;;;;;;;;5057092;28;20422;-19
2022/04/13 08:48:22;;;;;;;31.02;4.45;;;;;;;;;;5065230;28;20885;-19
2022/04/13 08:50:50;;;;;;;19.45;4.30;;;;;;;;;;5058603;28;20693;-19
2022/04/13 08:53:18;;;;;;;14.25;4.32;;;;;;;;;;5059270;28;20776;-19
2022/04/13 08:55:47;;;;;;;17.15;4.78;;;;;;;;;;5060660;28;20229;-19
2022/04/13 08:58:24;;;;;;;19.38;4.25;;;;;;;;;;5060886;28;20233;-20
2022/04/13 09:00:53;;;;;;;15.32;4.80;;;;;;;;;;5057850;28;20241;-19
2022/04/13 09:03:22;;;;;;;16.70;4.82;;;;;;;;;;5063019;28;20280;-19
2022/04/13 09:05:52;;;;;;;12.07;4.10;;;;;;;;;;5063397;28;21102;-19
2022/04/13 09:08:21;;;;;;;16.63;4.93;;;;;;;;;;5058452;28;20429;-19
2022/04/13 09:10:48;;;;;;;18.63;4.22;;;;;;;;;;5061707;28;20229;-19
2022/04/13 09:13:16;;;;;;;19.80;4.22;;;;;;;;;;5052372;28;20244;-19
2022/04/13 09:15:43;;;;;;;9.57;3.50;;;;;;;;;;5057861;28;20230;-20
2022/04/13 09:18:15;;;;;;;15.27;4.03;;;;;;;;;;5060149;28;20229;-19
2022/04/13 09:20:42;;;;;;;12.15;4.05;;;;;;;;;;5058817;28;20705;-20
2022/04/13 09:23:11;;;;;;;11.38;4.55;;;;;;;;;;5095621;28;20248;-19
2022/04/13 09:25:39;;;;;;;9.13;3.58;;;;;;;;;;5103197;28;20306;-20
2022/04/13 09:28:07;;;;;;;9.73;4.50;;;;;;;;;;5102798;28;20236;-19
2022/04/13 09:30:34;;;;;;;7.80;3.30;;;;;;;;;;5098198;28;20233;-19
2022/04/13 09:33:02;;;;;;;5.00;3.03;;;;;;;;;;5099977;28;20287;-19
2022/04/13 09:35:31;;;;;;;8.80;3.10;;;;;;;;;;5099170;28;20242;-20
2022/04/13 09:38:00;;;;;;;7.28;3.25;;;;;;;;;;5107586;28;20224;-20
2022/04/13 09:40:35;;;;;;;6.78;2.97;;;;;;;;;;5093719;28;20233;-20
2022/04/13 09:43:06;;;;;;;6.95;3.40;;;;;;;;;;5091449;28;20228;-20
2022/04/13 09:45:34;;;;;;;7.82;3.00;;;;;;;;;;5087186;28;20232;-20
2022/04/13 09:48:04;;;;;;;6.20;3.28;;;;;;;;;;5098312;28;20240;-20
2022/04/13 09:50:32;;;;;;;8.55;3.47;;;;;;;;;;5093131;28;20229;-19
2022/04/13 09:52:59;;;;;;;6.95;3.25;;;;;;;;;;5097464;28;20238;-19
2022/04/13 09:55:26;;;;;;;7.72;3.15;;;;;;;;;;5104274;28;20232;-19
2022/04/13 09:58:04;;;;;;;7.22;3.38;;;;;;;;;;5100076;28;20240;-20
2022/04/13 10:00:31;;;;;;;10.00;3.90;;;;;;;;;;5096485;28;20264;-19
2022/04/13 10:03:06;;;;;;;6.30;2.90;;;;;;;;;;5098913;28;20239;-20
2022/04/13 10:05:33;;;;;;;6.38;3.22;;;;;;;;;;5106054;28;20266;-19
2022/04/13 10:08:01;;;;;;;5.40;3.30;;;;;;;;;;5100448;28;20235;-20
2022/04/13 10:10:29;;;;;;;7.72;3.20;;;;;;;;;;5107428;28;20228;-19
2022/04/13 10:12:56;;;;;;;6.13;3.33;;;;;;;;;;5096036;28;20236;-20
2022/04/13 10:15:25;;;;;;;6.65;3.55;;;;;;;;;;5094746;28;20283;-19
2022/04/13 10:17:57;;;;;;;9.27;3.60;;;;;;;;;;5098759;28;20256;-19
2022/04/13 10:20:26;;;;;;;8.10;3.55;;;;;;;;;;5091095;28;20244;-20
2022/04/13 10:22:57;;;;;;;5.22;2.95;;;;;;;;;;5095386;28;20291;-20
2022/04/13 10:25:27;;;;;;;7.70;3.13;;;;;;;;;;5092978;28;20235;-19
2022/04/13 10:27:55;;;;;;;7.75;2.80;;;;;;;;;;5095507;28;20286;-20
2022/04/13 10:30:28;;;;;;;7.00;3.50;;;;;;;;;;5099028;28;20804;-20
2022/04/13 10:32:59;;;;;;;8.90;3.03;;;;;;;;;;5109071;28;20251;-19
2022/04/13 10:35:27;;;;;;;9.27;3.17;;;;;;;;;;5101354;28;20696;-19
2022/04/13 10:37:55;;;;;;;7.88;3.25;;;;;;;;;;5108259;28;20286;-20
2022/04/13 10:40:23;;;;;;;8.57;3.22;;;;;;;;;;5096630;28;20328;-19
2022/04/13 10:42:51;;;;;;;7.22;3.47;;;;;;;;;;5093168;28;20229;-19
2022/04/13 10:45:18;;;;;;;5.82;3.30;;;;;;;;;;5091008;28;20233;-19
2022/04/13 10:47:50;;;;;;;7.18;3.53;;;;;;;;;;5094140;28;20236;-19
2022/04/13 10:50:20;;;;;;;5.70;3.80;;;;;;;;;;5097579;28;20744;-20
2022/04/13 10:52:48;;;;;;;10.98;4.10;;;;;;;;;;5093638;28;20232;-19
2022/04/13 10:55:15;;;;;;;5.35;3.42;;;;;;;;;;5096819;28;20696;-19
2022/04/13 10:57:44;;;;;;;7.97;3.85;;;;;;;;;;5095081;28;20256;-20
2022/04/13 11:00:12;;;;;;;8.75;4.22;;;;;;;;;;5105647;28;20240;-20
2022/04/13 11:02:43;;;;;;;7.53;3.92;;;;;;;;;;5100169;28;20781;-20
2022/04/13 11:05:12;;;;;;;5.65;3.47;;;;;;;;;;5105728;28;20705;-19
2022/04/13 11:07:39;;;;;;;6.78;3.38;;;;;;;;;;5102481;28;20251;-20
2022/04/13 11:10:08;;;;;;;4.57;3.55;;;;;;;;;;5098193;28;20232;-19
2022/04/13 11:12:35;;;;;;;6.03;3.53;;;;;;;;;;5095630;28;20232;-19
2022/04/13 11:15:03;;;;;;;10.65;4.50;;;;;;;;;;5092940;28;20243;-19
2022/04/13 11:17:30;;;;;;;7.28;4.05;;;;;;;;;;5095092;28;20304;-20
2022/04/13 11:20:12;;;;;;;7.20;3.70;;;;;;;;;;5086005;28;21559;-20
2022/04/13 11:22:41;;;;;;;6.97;3.63;;;;;;;;;;5096142;28;20244;-20
2022/04/13 11:25:08;;;;;;;7.00;4.25;;;;;;;;;;5098192;28;21017;-20
2022/04/13 11:27:51;;;;;;;7.85;4.00;;;;;;;;;;5107527;28;20807;-19
2022/04/13 11:30:18;;;;;;;8.73;4.20;;;;;;;;;;5102354;28;20232;-20
2022/04/13 11:32:46;;;;;;;7.50;3.95;;;;;;;;;;5103412;28;20290;-19
2022/04/13 11:35:14;;;;;;;6.55;4.00;;;;;;;;;;5101556;28;20688;-19
2022/04/13 11:37:43;;;;;;;9.38;3.70;;;;;;;;;;5104732;28;20643;-20
2022/04/13 11:40:11;;;;;;;8.73;3.70;;;;;;;;;;5103735;28;20429;-19
2022/04/13 11:43:03;;;;;;;5.57;4.15;;;;;;;;;;5103781;28;20469;-20
2022/04/13 11:45:31;;;;;;;8.45;4.20;;;;;;;;;;5094331;28;20996;-19
2022/04/13 11:47:59;;;;;;;10.07;4.07;;;;;;;;;;5102048;28;20415;-19
2022/04/13 11:50:27;;;;;;;8.43;4.20;;;;;;;;;;5107515;28;20242;-19
2022/04/13 11:52:56;;;;;;;6.80;4.20;;;;;;;;;;5101242;28;20236;-20
2022/04/13 11:55:24;;;;;;;8.73;3.95;;;;;;;;;;5108535;28;20347;-19
2022/04/13 11:57:52;;;;;;;7.65;3.78;;;;;;;;;;5101129;28;20228;-20
2022/04/13 12:00:38;;;;;;;6.93;3.80;;;;;;;;;;5102382;28;20298;-20
2022/04/13 12:03:06;;;;;;;6.07;3.90;;;;;;;;;;5094660;28;20235;-20
2022/04/13 12:05:35;;;;;;;7.10;4.32;;;;;;;;;;5104243;28;20228;-19
2022/04/13 12:08:06;;;;;;;15.80;3.78;;;;;;;;;;5102146;28;20236;-19
2022/04/13 12:10:36;;;;;;;5.57;4.03;;;;;;;;;;5096524;28;20243;-20
2022/04/13 12:13:04;;;;;;;7.70;4.40;;;;;;;;;;5100551;28;20231;-19
2022/04/13 12:15:42;;;;;;;11.82;4.32;;;;;;;;;;5099349;28;20239;-19
2022/04/13 12:18:10;;;;;;;5.57;3.65;;;;;;;;;;5102919;28;20305;-20
2022/04/13 12:20:37;;;;;;;7.03;3.90;;;;;;;;;;5097096;28;21019;-20
2022/04/13 12:23:19;;;;;;;6.65;4.18;;;;;;;;;;5108529;28;20240;-20
2022/04/13 12:25:47;;;;;;;7.35;3.90;;;;;;;;;;5099137;28;20698;-20
2022/04/13 12:28:14;;;;;;;6.40;3.40;;;;;;;;;;5108825;28;20243;-19
2022/04/13 12:30:42;;;;;;;5.43;3.28;;;;;;;;;;5093714;28;20236;-20
2022/04/13 12:33:12;;;;;;;6.07;3.65;;;;;;;;;;5107971;28;20287;-20
2022/04/13 12:35:46;;;;;;;5.38;3.22;;;;;;;;;;5102110;28;20263;-19
2022/04/13 12:38:22;;;;;;;6.43;3.42;;;;;;;;;;5106777;28;20733;-19
2022/04/13 12:40:49;;;;;;;5.10;3.35;;;;;;;;;;5100950;28;20571;-19
2022/04/13 12:43:26;;;;;;;5.82;3.20;;;;;;;;;;5104543;28;20322;-19
2022/04/13 12:45:54;;;;;;;5.05;3.08;;;;;;;;;;5106272;28;20228;-19
2022/04/13 12:48:25;;;;;;;9.73;3.10;;;;;;;;;;5085566;28;20415;-19
2022/04/13 12:50:56;;;;;;;5.25;3.00;;;;;;;;;;5089591;28;21287;-19
2022/04/13 12:53:25;;;;;;;7.13;2.78;;;;;;;;;;5085150;28;20235;-20
2022/04/13 12:55:53;;;;;;;6.28;3.17;;;;;;;;;;5088475;28;20428;-19
2022/04/13 12:58:20;;;;;;;7.95;2.95;;;;;;;;;;5087431;28;20225;-20
2022/04/13 13:00:48;;;;;;;5.35;2.92;;;;;;;;;;5086276;28;20237;-19
2022/04/13 13:03:16;;;;;;;11.70;3.47;;;;;;;;;;5090863;28;20419;-19
2022/04/13 13:05:43;;;;;;;10.60;3.05;;;;;;;;;;5093799;28;20748;-19
2022/04/13 13:08:11;;;;;;;5.43;2.92;;;;;;;;;;5102538;28;20240;-19
2022/04/13 13:10:39;;;;;;;6.10;3.00;;;;;;;;;;5087567;28;20236;-19
2022/04/13 13:13:11;;;;;;;5.80;3.28;;;;;;;;;;5087365;28;20246;-19
2022/04/13 13:15:38;;;;;;;4.93;3.17;;;;;;;;;;5100059;28;20239;-19
2022/04/13 13:18:06;;;;;;;10.43;3.05;;;;;;;;;;5097145;28;20233;-19
2022/04/13 13:20:33;;;;;;;7.65;3.38;;;;;;;;;;5098356;28;20227;-19
2022/04/13 13:23:01;;;;;;;7.25;3.17;;;;;;;;;;5099361;28;20251;-19
2022/04/13 13:25:30;;;;;;;5.10;3.00;;;;;;;;;;5100506;28;20809;-19
2022/04/13 13:27:59;;;;;;;8.90;3.70;;;;;;;;;;5089548;28;20236;-19
2022/04/13 13:30:28;;;;;;;7.35;3.22;;;;;;;;;;5088263;28;20229;-19
2022/04/13 13:32:56;;;;;;;6.72;3.53;;;;;;;;;;5094553;28;20237;-19
2022/04/13 13:35:26;;;;;;;7.18;3.45;;;;;;;;;;5100529;28;20240;-19
2022/04/13 13:37:54;;;;;;;5.65;3.35;;;;;;;;;;5102384;28;20324;-19
2022/04/13 13:40:30;;;;;;;5.35;3.13;;;;;;;;;;5098792;28;20267;-19
2022/04/13 13:42:59;;;;;;;14.23;4.30;;;;;;;;;;5086520;28;20241;-20
2022/04/13 13:45:27;;;;;;;11.20;4.60;;;;;;;;;;5091393;28;21087;-19
2022/04/13 13:47:55;;;;;;;12.50;4.40;;;;;;;;;;5092346;28;20439;-19
2022/04/13 13:50:22;;;;;;;9.43;3.75;;;;;;;;;;5097798;28;20932;-19
2022/04/13 13:52:49;;;;;;;10.77;4.13;;;;;;;;;;5095644;28;20447;-19
2022/04/13 13:55:22;;;;;;;20.95;4.35;;;;;;;;;;5098711;28;21163;-19
2022/04/13 13:57:50;;;;;;;18.25;4.40;;;;;;;;;;5095483;28;20236;-19
2022/04/13 14:00:18;;;;;;;15.85;4.20;;;;;;;;;;5092909;28;20233;-19
2022/04/13 14:02:52;;;;;;;11.57;3.60;;;;;;;;;;5091543;28;20259;-19
2022/04/13 14:05:21;;;;;;;15.23;3.92;;;;;;;;;;5088581;28;20247;-19
2022/04/13 14:07:48;;;;;;;12.27;4.07;;;;;;;;;;5093238;28;20240;-19
2022/04/13 14:10:16;;;;;;;17.00;3.42;;;;;;;;;;5096327;28;20232;-19
2022/04/13 14:12:43;;;;;;;10.27;3.50;;;;;;;;;;5099189;28;20231;-19
2022/04/13 14:15:11;;;;;;;10.35;3.53;;;;;;;;;;5094763;28;20233;-20
2022/04/13 14:17:40;;;;;;;9.75;3.03;;;;;;;;;;5098064;28;20228;-19
2022/04/13 14:20:08;;;;;;;11.88;3.50;;;;;;;;;;5095086;28;20730;-18
2022/04/13 14:22:35;;;;;;;10.48;3.40;;;;;;;;;;5099260;28;20251;-18
2022/04/13 14:25:02;;;;;;;10.48;2.83;;;;;;;;;;5097424;28;20255;-18
2022/04/13 14:27:30;;;;;;;13.27;2.85;;;;;;;;;;5095476;28;20246;-18
2022/04/13 14:29:57;;;;;;;10.52;3.17;;;;;;;;;;5098380;28;20248;-20
2022/04/13 14:32:25;;;;;;;10.00;2.92;;;;;;;;;;5100435;28;20239;-20
2022/04/13 14:34:54;;;;;;;13.18;3.05;;;;;;;;;;5098195;28;20690;-20
2022/04/13 14:37:21;;;;;;;12.32;2.75;;;;;;;;;;5095706;28;20232;-20
2022/04/13 14:39:49;;;;;;;8.48;2.70;;;;;;;;;;5103376;28;20224;-20
2022/04/13 14:42:16;;;;;;;9.45;2.53;;;;;;;;;;5098585;28;20233;-20
2022/04/13 14:44:43;;;;;;;6.32;2.67;;;;;;;;;;5093452;28;20241;-20
2022/04/13 14:47:11;;;;;;;7.82;2.38;;;;;;;;;;5094280;28;20868;-20
2022/04/13 14:49:38;;;;;;;8.68;2.10;;;;;;;;;;5095583;28;20350;-20